createdAt,value
2019-04-16T00:00:11.848Z,91.77
2019-04-16T00:02:53.441Z,93.20
2019-04-16T00:05:32.779Z,90.47
2019-04-16T00:08:27.118Z,98.53
2019-04-16T00:11:05.484Z,98.43
2019-04-16T00:13:43.585Z,95.40
2019-04-16T00:16:15.840Z,88.00
2019-04-16T00:18:57.169Z,91.37
2019-04-16T00:21:46.455Z,93.33
2019-04-16T00:24:29.404Z,86.70
2019-04-16T00:27:01.371Z,97.87
2019-04-16T00:29:33.797Z,97.20
2019-04-16T00:32:12.976Z,95.57
2019-04-16T00:34:45.437Z,91.70
2019-04-16T00:37:20.460Z,100.37
2019-04-16T00:39:55.575Z,94.17
2019-04-16T00:42:25.291Z,99.20
2019-04-16T00:44:57.229Z,94.73
2019-04-16T00:47:29.175Z,98.57
2019-04-16T00:50:01.329Z,102.20
2019-04-16T00:52:36.672Z,95.87
2019-04-16T00:55:07.744Z,89.00
2019-04-16T00:57:39.992Z,100.87
2019-04-16T01:00:12.410Z,87.77
2019-04-16T01:02:46.844Z,95.27
2019-04-16T01:05:18.064Z,106.70
2019-04-16T01:07:50.397Z,103.27
2019-04-16T01:10:22.361Z,106.37
2019-04-16T01:12:54.348Z,99.27
2019-04-16T01:15:26.282Z,85.97
2019-04-16T01:17:58.374Z,94.57
2019-04-16T01:20:30.578Z,93.30
2019-04-16T01:23:02.512Z,87.17
2019-04-16T01:25:34.582Z,84.60
2019-04-16T01:28:09.544Z,90.10
2019-04-16T01:31:08.126Z,83.23
2019-04-16T01:33:58.860Z,83.80
2019-04-16T01:36:54.278Z,75.63
2019-04-16T01:39:28.475Z,89.73
2019-04-16T01:42:00.692Z,86.50
2019-04-16T01:44:32.658Z,83.03
2019-04-16T01:47:05.338Z,86.47
2019-04-16T01:49:39.306Z,92.37
2019-04-16T01:52:11.221Z,83.73
2019-04-16T01:54:43.321Z,83.93
2019-04-16T01:57:15.350Z,76.70
2019-04-16T01:59:47.286Z,84.77
2019-04-16T02:02:19.238Z,78.43
2019-04-16T02:04:51.999Z,78.40
2019-04-16T02:07:27.678Z,92.03
2019-04-16T02:09:58.508Z,81.60
2019-04-16T02:12:30.754Z,86.87
2019-04-16T02:15:02.687Z,88.13
2019-04-16T02:17:34.641Z,80.27
2019-04-16T02:20:07.585Z,93.47
2019-04-16T02:22:42.317Z,81.23
2019-04-16T02:25:13.352Z,78.97
2019-04-16T02:27:45.408Z,81.20
2019-04-16T02:30:17.597Z,76.43
2019-04-16T02:32:50.223Z,87.27
2019-04-16T02:35:22.271Z,83.23
2019-04-16T02:37:54.216Z,80.03
2019-04-16T02:40:26.265Z,87.17
2019-04-16T02:43:04.240Z,75.57
2019-04-16T02:45:31.936Z,74.73
2019-04-16T02:48:05.163Z,77.57
2019-04-16T02:51:05.285Z,87.97
2019-04-16T02:54:01.423Z,81.13
2019-04-16T02:56:52.103Z,77.80
2019-04-16T02:59:28.250Z,72.60
2019-04-16T03:02:22.781Z,69.07
2019-04-16T03:04:58.424Z,71.27
2019-04-16T03:07:32.797Z,73.97
2019-04-16T03:10:04.401Z,72.97
2019-04-16T03:12:36.341Z,76.93
2019-04-16T03:15:09.032Z,76.37
2019-04-16T03:17:46.344Z,79.03
2019-04-16T03:20:20.782Z,76.90
2019-04-16T03:22:52.380Z,72.73
2019-04-16T03:25:24.410Z,76.47
2019-04-16T03:27:56.658Z,66.53
2019-04-16T03:30:28.647Z,75.77
2019-04-16T03:33:10.432Z,73.77
2019-04-16T03:35:34.564Z,75.80
2019-04-16T03:38:06.527Z,84.27
2019-04-16T03:40:38.506Z,77.70
2019-04-16T03:43:10.468Z,87.30
2019-04-16T03:45:42.422Z,78.47
2019-04-16T03:48:14.388Z,85.90
2019-04-16T03:50:46.428Z,80.43
2019-04-16T03:53:18.482Z,78.57
2019-04-16T03:55:50.946Z,79.60
2019-04-16T03:58:22.942Z,83.53
2019-04-16T04:00:54.891Z,91.10
2019-04-16T04:03:27.003Z,82.57
2019-04-16T04:05:59.150Z,88.77
2019-04-16T04:08:31.385Z,88.60
2019-04-16T04:11:03.535Z,73.10
2019-04-16T04:13:35.486Z,74.47
2019-04-16T04:16:08.070Z,71.13
2019-04-16T04:18:42.915Z,63.83
2019-04-16T04:21:14.541Z,66.87
2019-04-16T04:23:46.495Z,64.87
2019-04-16T04:26:18.574Z,56.73
2019-04-16T04:28:51.535Z,64.23
2019-04-16T04:31:24.237Z,60.20
2019-04-16T04:33:56.238Z,65.83
2019-04-16T04:36:31.358Z,61.77
2019-04-16T04:39:08.982Z,68.97
2019-04-16T04:41:38.808Z,62.33
2019-04-16T04:44:11.271Z,56.97
2019-04-16T04:46:46.146Z,57.73
2019-04-16T04:49:17.097Z,52.73
2019-04-16T04:51:49.035Z,65.77
2019-04-16T04:54:22.537Z,58.70
2019-04-16T04:56:56.401Z,56.50
2019-04-16T04:59:28.523Z,57.10
2019-04-16T05:02:00.943Z,55.20
2019-04-16T05:04:45.970Z,63.20
2019-04-16T05:07:18.301Z,59.00
2019-04-16T05:09:52.052Z,58.00
2019-04-16T05:12:24.038Z,53.77
2019-04-16T05:14:58.452Z,59.53
2019-04-16T05:17:30.835Z,61.20
2019-04-16T05:20:02.845Z,59.33
2019-04-16T05:22:34.869Z,58.33
2019-04-16T05:25:07.193Z,57.63
2019-04-16T05:27:41.020Z,51.33
2019-04-16T05:30:13.249Z,55.70
2019-04-16T05:32:45.212Z,54.17
2019-04-16T05:35:17.214Z,60.23
2019-04-16T05:37:51.503Z,57.73
2019-04-16T05:40:23.129Z,49.30
2019-04-16T05:42:58.781Z,47.93
2019-04-16T05:45:30.491Z,49.53
2019-04-16T05:48:02.498Z,52.07
2019-04-16T05:50:34.504Z,52.97
2019-04-16T05:53:08.442Z,51.13
2019-04-16T05:55:49.960Z,49.23
2019-04-16T05:58:22.594Z,51.20
2019-04-16T06:01:05.542Z,46.60
2019-04-16T06:03:37.648Z,46.53
2019-04-16T06:06:09.610Z,43.40
2019-04-16T06:08:41.806Z,45.27
2019-04-16T06:11:27.611Z,44.23
2019-04-16T06:13:55.041Z,41.87
2019-04-16T06:16:44.633Z,45.43
2019-04-16T06:19:34.402Z,43.63
2019-04-16T06:22:29.965Z,44.80
2019-04-16T06:25:19.789Z,43.70
2019-04-16T06:28:09.066Z,40.87
2019-04-16T06:30:58.440Z,36.87
2019-04-16T06:33:35.474Z,36.30
2019-04-16T06:36:26.411Z,30.83
2019-04-16T06:39:23.142Z,36.40
2019-04-16T06:42:15.175Z,36.70
2019-04-16T06:44:53.174Z,36.47
2019-04-16T06:48:02.570Z,32.83
2019-04-16T06:50:53.365Z,26.47
2019-04-16T06:53:43.114Z,27.82
2019-04-16T06:56:43.300Z,26.27
2019-04-16T06:59:26.564Z,32.45
2019-04-16T07:02:37.535Z,26.75
2019-04-16T07:05:16.022Z,30.15
2019-04-16T07:08:05.353Z,28.57
2019-04-16T07:10:45.087Z,23.38
2019-04-16T07:13:17.210Z,23.55
2019-04-16T07:15:49.325Z,24.50
2019-04-16T07:18:21.603Z,19.80
2019-04-16T07:20:53.634Z,21.40
2019-04-16T07:23:26.144Z,26.68
2019-04-16T07:25:58.328Z,18.67
2019-04-16T07:28:47.987Z,20.90
2019-04-16T07:31:44.952Z,18.60
2019-04-16T07:34:39.910Z,21.85
2019-04-16T07:37:33.850Z,19.42
2019-04-16T07:40:24.164Z,17.00
2019-04-16T07:43:15.576Z,13.53
2019-04-16T07:46:11.363Z,14.83
2019-04-16T07:49:05.102Z,12.13
2019-04-16T07:51:51.541Z,13.00
2019-04-16T07:54:32.295Z,11.78
2019-04-16T07:57:04.263Z,9.88
2019-04-16T07:59:36.293Z,8.85
2019-04-16T08:02:08.333Z,22.40
2019-04-16T08:04:40.916Z,12.18
2019-04-16T08:07:12.901Z,18.73
2019-04-16T08:09:45.275Z,13.28
2019-04-16T08:12:29.827Z,12.07
2019-04-16T08:14:50.978Z,14.80
2019-04-16T08:17:23.071Z,10.38
2019-04-16T08:19:55.807Z,11.30
2019-04-16T08:22:28.213Z,9.70
2019-04-16T08:25:03.213Z,8.00
2019-04-16T08:27:35.770Z,11.73
2019-04-16T08:30:10.725Z,11.33
2019-04-16T08:32:45.751Z,10.72
2019-04-16T08:35:16.638Z,13.05
2019-04-16T08:37:49.547Z,10.00
2019-04-16T08:40:21.686Z,12.35
2019-04-16T08:42:56.968Z,11.70
2019-04-16T08:45:27.625Z,9.23
2019-04-16T08:47:59.615Z,7.00
2019-04-16T08:50:31.611Z,11.73
2019-04-16T08:53:03.614Z,8.65
2019-04-16T08:55:36.037Z,8.10
2019-04-16T08:58:08.747Z,12.63
2019-04-16T09:00:45.994Z,10.05
2019-04-16T09:03:15.815Z,10.50
2019-04-16T09:05:47.935Z,8.80
2019-04-16T09:08:45.304Z,9.80
2019-04-16T09:11:23.491Z,8.98
2019-04-16T09:13:56.738Z,10.03
2019-04-16T09:16:28.809Z,10.10
2019-04-16T09:19:10.070Z,10.35
2019-04-16T09:21:44.385Z,10.23
2019-04-16T09:24:28.558Z,10.05
2019-04-16T09:27:06.764Z,10.30
2019-04-16T09:29:48.838Z,7.95
2019-04-16T09:32:29.861Z,13.15
2019-04-16T09:35:19.713Z,7.87
2019-04-16T09:38:12.996Z,9.25
2019-04-16T09:41:11.419Z,11.18
2019-04-16T09:43:46.048Z,11.65
2019-04-16T09:46:25.473Z,10.18
2019-04-16T09:48:52.207Z,10.23
2019-04-16T09:51:25.881Z,7.80
2019-04-16T09:53:58.676Z,12.13
2019-04-16T09:56:31.703Z,10.25
2019-04-16T09:59:15.792Z,10.80
2019-04-16T10:01:53.969Z,7.83
2019-04-16T10:04:26.250Z,10.03
2019-04-16T10:06:58.583Z,7.92
2019-04-16T10:09:31.127Z,8.45
2019-04-16T10:12:04.942Z,9.63
2019-04-16T10:14:36.901Z,7.90
2019-04-16T10:17:09.194Z,11.73
2019-04-16T10:19:43.246Z,10.82
2019-04-16T10:22:14.827Z,7.78
2019-04-16T10:25:13.118Z,9.58
2019-04-16T10:27:51.000Z,11.90
2019-04-16T10:30:26.200Z,10.70
2019-04-16T10:32:58.284Z,9.48
2019-04-16T10:35:30.814Z,9.05
2019-04-16T10:38:10.174Z,10.70
2019-04-16T10:40:44.733Z,10.48
2019-04-16T10:43:44.820Z,5.87
2019-04-16T10:46:33.953Z,6.08
2019-04-16T10:49:16.784Z,9.08
2019-04-16T10:52:10.490Z,7.28
2019-04-16T10:54:54.227Z,9.20
2019-04-16T10:57:48.961Z,10.40
2019-04-16T11:00:31.275Z,10.70
2019-04-16T11:03:07.197Z,13.55
2019-04-16T11:05:47.041Z,12.80
2019-04-16T11:08:19.154Z,12.10
2019-04-16T11:10:51.135Z,8.10
2019-04-16T11:13:35.770Z,8.20
2019-04-16T11:16:17.118Z,7.03
2019-04-16T11:18:49.184Z,13.43
2019-04-16T11:21:21.181Z,7.17
2019-04-16T11:23:53.269Z,9.53
2019-04-16T11:26:25.387Z,10.85
2019-04-16T11:28:59.158Z,7.62
2019-04-16T11:31:31.562Z,10.80
2019-04-16T11:34:06.533Z,10.40
2019-04-16T11:36:38.959Z,9.78
2019-04-16T11:39:12.110Z,11.48
2019-04-16T11:41:44.304Z,16.15
2019-04-16T11:44:17.348Z,8.60
2019-04-16T11:46:50.380Z,9.27
2019-04-16T11:49:22.453Z,8.70
2019-04-16T11:51:54.519Z,8.03
2019-04-16T11:54:26.524Z,9.63
2019-04-16T11:56:59.499Z,13.70
2019-04-16T11:59:33.543Z,10.77
2019-04-16T12:02:18.103Z,11.43
2019-04-16T12:05:03.699Z,11.87
2019-04-16T12:07:54.581Z,10.20
2019-04-16T12:10:47.635Z,9.00
2019-04-16T12:13:45.529Z,10.73
2019-04-16T12:16:42.108Z,7.70
2019-04-16T12:19:31.295Z,11.43
2019-04-16T12:22:21.785Z,13.63
2019-04-16T12:25:13.266Z,13.83
2019-04-16T12:28:12.514Z,10.13
2019-04-16T12:31:02.573Z,17.60
2019-04-16T12:33:51.884Z,12.40
2019-04-16T12:36:57.868Z,12.80
2019-04-16T12:39:35.687Z,11.00
2019-04-16T12:42:21.875Z,16.57
2019-04-16T12:45:11.406Z,23.27
2019-04-16T12:47:51.036Z,16.67
2019-04-16T12:50:51.471Z,15.40
2019-04-16T12:53:42.891Z,10.10
2019-04-16T12:56:41.031Z,13.37
2019-04-16T12:59:41.721Z,12.77
2019-04-16T13:02:32.438Z,10.53
2019-04-16T13:05:12.934Z,14.00
2019-04-16T13:08:02.319Z,14.87
2019-04-16T13:10:56.134Z,15.40
2019-04-16T13:13:47.016Z,15.50
2019-04-16T13:16:23.233Z,13.20
2019-04-16T13:19:13.016Z,12.03
2019-04-16T13:21:55.490Z,11.33
2019-04-16T13:24:43.095Z,11.23
2019-04-16T13:27:31.130Z,18.57
2019-04-16T13:30:03.539Z,22.40
2019-04-16T13:32:35.935Z,21.90
2019-04-16T13:35:08.241Z,20.07
2019-04-16T13:37:40.300Z,16.90
2019-04-16T13:40:16.199Z,19.10
2019-04-16T13:42:48.193Z,14.93
2019-04-16T13:45:40.741Z,15.03
2019-04-16T13:48:30.527Z,13.20
2019-04-16T13:51:06.102Z,14.10
2019-04-16T13:54:00.322Z,12.30
2019-04-16T13:56:55.955Z,17.00
2019-04-16T13:59:49.932Z,13.80
2019-04-16T14:02:43.763Z,10.77
2019-04-16T14:05:16.113Z,16.37
2019-04-16T14:07:48.229Z,31.37
2019-04-16T14:10:20.250Z,16.43
2019-04-16T14:12:52.348Z,16.87
2019-04-16T14:15:32.464Z,24.43
2019-04-16T14:18:00.778Z,16.73
2019-04-16T14:20:32.958Z,16.13
2019-04-16T14:23:05.418Z,15.23
2019-04-16T14:25:37.447Z,11.90
2019-04-16T14:28:09.454Z,26.90
2019-04-16T14:30:44.586Z,12.37
2019-04-16T14:33:23.185Z,21.20
2019-04-16T14:35:55.289Z,11.80
2019-04-16T14:38:42.256Z,12.70
2019-04-16T14:41:15.929Z,15.27
2019-04-16T14:43:51.811Z,34.53
2019-04-16T14:46:28.267Z,14.07
2019-04-16T14:48:57.775Z,11.80
2019-04-16T14:51:30.073Z,12.50
2019-04-16T14:54:07.524Z,11.57
2019-04-16T14:56:45.917Z,13.37
2019-04-16T14:59:36.718Z,13.33
2019-04-16T15:02:24.876Z,9.70
2019-04-16T15:05:33.960Z,21.63
2019-04-16T15:08:28.180Z,11.20
2019-04-16T15:11:28.368Z,14.00
2019-04-16T15:14:23.391Z,13.40
2019-04-16T15:17:29.449Z,13.50
2019-04-16T15:20:28.228Z,127.83
2019-04-16T15:23:21.986Z,19.57
2019-04-16T15:26:18.679Z,19.50
2019-04-16T15:28:56.264Z,19.77
2019-04-16T15:31:47.209Z,13.07
2019-04-16T15:34:22.176Z,20.87
2019-04-16T15:37:13.028Z,16.07
2019-04-16T15:39:51.183Z,16.20
2019-04-16T15:42:40.732Z,10.87
2019-04-16T15:45:18.148Z,21.17
2019-04-16T15:48:21.607Z,18.10
2019-04-16T15:51:21.653Z,31.03
2019-04-16T15:54:08.732Z,37.00
2019-04-16T15:56:59.568Z,36.83
2019-04-16T15:59:42.559Z,18.70
2019-04-16T16:02:32.290Z,16.60
2019-04-16T16:05:14.470Z,13.40
2019-04-16T16:07:56.597Z,22.97
2019-04-16T16:10:34.630Z,17.07
2019-04-16T16:13:06.688Z,11.10
2019-04-16T16:15:40.474Z,13.70
2019-04-16T16:18:12.559Z,13.77
2019-04-16T16:20:44.601Z,19.60
2019-04-16T16:23:16.728Z,20.60
2019-04-16T16:25:48.811Z,11.13
2019-04-16T16:28:21.233Z,20.13
2019-04-16T16:30:53.338Z,23.43
2019-04-16T16:33:25.334Z,15.17
2019-04-16T16:35:59.619Z,20.67
2019-04-16T16:38:31.456Z,18.00
2019-04-16T16:41:03.670Z,23.93
2019-04-16T16:43:35.803Z,15.33
2019-04-16T16:46:32.506Z,38.27
2019-04-16T16:49:05.013Z,35.93
2019-04-16T16:51:38.674Z,26.47
2019-04-16T16:54:18.872Z,16.00
2019-04-16T16:57:08.420Z,13.50
2019-04-16T16:59:51.310Z,11.70
2019-04-16T17:02:31.886Z,14.60
2019-04-16T17:05:04.103Z,12.87
2019-04-16T17:07:36.216Z,13.00
2019-04-16T17:10:10.130Z,13.53
2019-04-16T17:12:45.015Z,11.43
2019-04-16T17:15:17.072Z,11.40
2019-04-16T17:17:49.088Z,12.03
2019-04-16T17:20:21.126Z,11.37
2019-04-16T17:22:53.686Z,13.87
2019-04-16T17:25:36.214Z,13.93
2019-04-16T17:28:00.202Z,15.10
2019-04-16T17:30:32.927Z,15.63
2019-04-16T17:33:05.015Z,18.80
2019-04-16T17:35:37.002Z,20.27
2019-04-16T17:38:09.145Z,19.80
2019-04-16T17:40:47.215Z,38.40
2019-04-16T17:43:28.089Z,32.17
2019-04-16T17:46:16.290Z,21.00
2019-04-16T17:49:06.639Z,20.40
2019-04-16T17:51:50.618Z,24.77
2019-04-16T17:54:36.797Z,16.07
2019-04-16T17:57:30.213Z,20.17
2019-04-16T18:00:15.334Z,19.80
2019-04-16T18:03:08.094Z,17.00
2019-04-16T18:05:59.375Z,16.03
2019-04-16T18:09:02.342Z,19.07
2019-04-16T18:11:55.945Z,21.33
2019-04-16T18:14:44.920Z,23.53
2019-04-16T18:17:27.658Z,21.60
2019-04-16T18:20:08.772Z,23.73
2019-04-16T18:22:46.700Z,22.63
2019-04-16T18:25:37.370Z,25.10
2019-04-16T18:28:17.460Z,21.90
2019-04-16T18:31:08.345Z,25.27
2019-04-16T18:33:45.714Z,22.80
2019-04-16T18:36:33.615Z,54.70
2019-04-16T18:39:38.372Z,37.07
2019-04-16T18:42:18.154Z,40.67
2019-04-16T18:45:01.412Z,35.40
2019-04-16T18:47:43.852Z,29.03
2019-04-16T18:50:22.137Z,29.67
2019-04-16T18:52:54.542Z,31.50
2019-04-16T18:55:26.665Z,47.20
2019-04-16T18:57:58.803Z,44.37
2019-04-16T19:00:44.921Z,105.77
2019-04-16T19:03:17.050Z,39.97
2019-04-16T19:05:49.236Z,48.83
2019-04-16T19:08:21.252Z,41.57
2019-04-16T19:10:53.451Z,42.57
2019-04-16T19:13:25.459Z,41.97
2019-04-16T19:15:57.540Z,42.10
2019-04-16T19:18:29.593Z,34.20
2019-04-16T19:21:01.679Z,33.77
2019-04-16T19:23:33.714Z,29.83
2019-04-16T19:26:06.189Z,31.50
2019-04-16T19:28:39.629Z,32.67
2019-04-16T19:31:12.026Z,33.93
2019-04-16T19:33:44.055Z,33.60
2019-04-16T19:36:16.189Z,34.20
2019-04-16T19:38:48.231Z,30.33
2019-04-16T19:41:23.572Z,35.67
2019-04-16T19:43:54.672Z,49.00
2019-04-16T19:46:27.009Z,39.90
2019-04-16T19:49:00.422Z,37.23
2019-04-16T19:51:33.114Z,40.77
2019-04-16T19:54:05.757Z,36.20
2019-04-16T19:56:38.044Z,40.63
2019-04-16T19:59:10.972Z,39.93
2019-04-16T20:01:43.062Z,36.63
2019-04-16T20:04:15.167Z,29.07
2019-04-16T20:06:47.514Z,32.77
2019-04-16T20:09:19.841Z,29.67
2019-04-16T20:11:54.698Z,25.57
2019-04-16T20:14:25.534Z,25.40
2019-04-16T20:16:57.546Z,29.60
2019-04-16T20:19:29.536Z,27.97
2019-04-16T20:22:01.601Z,32.50
2019-04-16T20:24:33.793Z,28.10
2019-04-16T20:27:06.992Z,28.37
2019-04-16T20:29:39.177Z,24.93
2019-04-16T20:32:11.385Z,19.60
2019-04-16T20:34:45.224Z,21.90
2019-04-16T20:37:17.110Z,25.23
2019-04-16T20:39:49.110Z,18.97
2019-04-16T20:42:21.498Z,23.23
2019-04-16T20:44:53.537Z,21.83
2019-04-16T20:47:25.580Z,19.77
2019-04-16T20:49:57.785Z,20.27
2019-04-16T20:52:30.835Z,18.23
2019-04-16T20:55:03.991Z,23.83
2019-04-16T20:57:38.960Z,16.77
2019-04-16T21:00:12.846Z,18.63
2019-04-16T21:02:44.792Z,19.83
2019-04-16T21:05:22.275Z,18.20
2019-04-16T21:07:50.576Z,15.67
2019-04-16T21:10:22.801Z,16.53
2019-04-16T21:12:55.117Z,15.50
2019-04-16T21:15:28.373Z,15.30
2019-04-16T21:18:00.528Z,16.83
2019-04-16T21:20:32.585Z,24.80
2019-04-16T21:23:05.067Z,26.50
2019-04-16T21:25:37.109Z,25.17
2019-04-16T21:28:46.344Z,26.43
2019-04-16T21:31:31.395Z,22.30
2019-04-16T21:34:26.289Z,19.80
2019-04-16T21:37:15.396Z,21.40
2019-04-16T21:39:58.962Z,24.90
2019-04-16T21:42:34.366Z,23.47
2019-04-16T21:45:05.715Z,23.87
2019-04-16T21:47:37.903Z,19.90
2019-04-16T21:50:10.463Z,23.37
2019-04-16T21:52:42.403Z,20.23
2019-04-16T21:55:14.415Z,16.57
2019-04-16T21:57:46.656Z,15.30
2019-04-16T22:00:39.305Z,15.27
2019-04-16T22:03:12.267Z,16.90
2019-04-16T22:05:48.078Z,19.97
2019-04-16T22:08:17.900Z,19.60
2019-04-16T22:10:50.201Z,15.23
2019-04-16T22:13:22.160Z,15.70
2019-04-16T22:15:57.333Z,17.50
2019-04-16T22:18:29.708Z,17.40
2019-04-16T22:21:01.793Z,19.87
2019-04-16T22:23:33.752Z,18.40
2019-04-16T22:26:09.685Z,17.53
2019-04-16T22:28:44.155Z,16.53
2019-04-16T22:31:13.438Z,18.83
2019-04-16T22:33:45.431Z,16.67
2019-04-16T22:36:17.474Z,18.90
2019-04-16T22:38:54.138Z,17.67
2019-04-16T22:41:33.190Z,19.73
2019-04-16T22:44:32.041Z,21.80
2019-04-16T22:47:09.333Z,23.67
2019-04-16T22:49:41.380Z,26.57
2019-04-16T22:52:13.386Z,29.50
2019-04-16T22:54:45.336Z,28.93
2019-04-16T22:57:17.350Z,24.87
2019-04-16T22:59:49.935Z,24.27
2019-04-16T23:02:27.941Z,29.90
2019-04-16T23:05:00.226Z,25.50
2019-04-16T23:07:33.663Z,31.87
2019-04-16T23:10:06.091Z,26.30
2019-04-16T23:12:38.024Z,28.03
2019-04-16T23:15:12.182Z,24.57
2019-04-16T23:17:46.112Z,28.53
2019-04-16T23:20:29.110Z,29.60
2019-04-16T23:22:51.670Z,31.60
2019-04-16T23:25:26.898Z,32.23
2019-04-16T23:27:57.818Z,31.67
2019-04-16T23:30:30.026Z,34.37
2019-04-16T23:33:01.975Z,29.90
2019-04-16T23:35:34.009Z,29.30
2019-04-16T23:38:06.121Z,31.07
2019-04-16T23:40:40.706Z,31.23
2019-04-16T23:43:25.758Z,30.93
2019-04-16T23:46:15.240Z,30.30
2019-04-16T23:49:02.757Z,33.93
2019-04-16T23:51:38.872Z,30.00
2019-04-16T23:54:18.000Z,31.03
2019-04-16T23:56:56.420Z,31.67
2019-04-16T23:59:42.181Z,30.30
